createdAt,value
2018-08-13T00:01:38.931Z,18.34
2018-08-13T00:04:07.221Z,18.41
2018-08-13T00:06:35.849Z,18.27
2018-08-13T00:09:06.013Z,18.20
2018-08-13T00:11:34.526Z,18.16
2018-08-13T00:14:02.699Z,18.12
2018-08-13T00:16:30.998Z,18.02
2018-08-13T00:18:59.178Z,18.01
2018-08-13T00:21:27.370Z,17.95
2018-08-13T00:23:55.669Z,18.05
2018-08-13T00:26:23.902Z,18.10
2018-08-13T00:28:52.218Z,18.02
2018-08-13T00:31:20.446Z,18.02
2018-08-13T00:33:48.622Z,17.95
2018-08-13T00:36:17.350Z,17.94
2018-08-13T00:38:45.521Z,17.89
2018-08-13T00:41:13.704Z,17.94
2018-08-13T00:43:41.894Z,17.88
2018-08-13T00:46:10.109Z,17.85
2018-08-13T00:48:38.541Z,17.71
2018-08-13T00:51:06.733Z,17.68
2018-08-13T00:53:34.931Z,17.70
2018-08-13T00:56:03.231Z,17.80
2018-08-13T00:58:31.465Z,17.80
2018-08-13T01:00:59.670Z,17.79
2018-08-13T01:03:28.204Z,17.67
2018-08-13T01:05:56.402Z,17.64
2018-08-13T01:08:24.590Z,17.54
2018-08-13T01:10:52.856Z,17.51
2018-08-13T01:13:21.045Z,17.50
2018-08-13T01:15:49.228Z,17.52
2018-08-13T01:18:17.434Z,17.51
2018-08-13T01:20:45.702Z,17.55
2018-08-13T01:23:13.876Z,17.56
2018-08-13T01:25:42.041Z,17.57
2018-08-13T01:28:10.242Z,17.54
2018-08-13T01:30:38.468Z,17.49
2018-08-13T01:33:06.818Z,17.57
2018-08-13T01:35:35.009Z,17.52
2018-08-13T01:38:03.312Z,17.54
2018-08-13T01:40:31.542Z,17.54
2018-08-13T01:42:59.770Z,17.43
2018-08-13T01:45:27.946Z,17.46
2018-08-13T01:47:56.244Z,17.36
2018-08-13T01:50:24.442Z,17.34
2018-08-13T01:52:52.633Z,17.31
2018-08-13T01:55:20.817Z,17.27
2018-08-13T01:57:49.025Z,17.26
2018-08-13T02:00:17.522Z,17.20
2018-08-13T02:02:45.721Z,17.23
2018-08-13T02:05:13.941Z,17.21
2018-08-13T02:07:42.237Z,17.18
2018-08-13T02:10:11.869Z,17.20
2018-08-13T02:12:40.546Z,17.16
2018-08-13T02:15:08.850Z,17.10
2018-08-13T02:17:37.160Z,17.01
2018-08-13T02:20:07.172Z,17.05
2018-08-13T02:22:35.490Z,17.10
2018-08-13T02:25:04.448Z,17.16
2018-08-13T02:27:32.650Z,17.15
2018-08-13T02:30:00.922Z,17.14
2018-08-13T02:32:29.154Z,17.13
2018-08-13T02:34:57.367Z,17.06
2018-08-13T02:37:25.618Z,17.05
2018-08-13T02:39:53.882Z,17.09
2018-08-13T02:42:22.185Z,17.13
2018-08-13T02:44:50.388Z,17.11
2018-08-13T02:47:18.613Z,17.05
2018-08-13T02:49:46.806Z,16.98
2018-08-13T02:52:14.977Z,16.95
2018-08-13T02:54:43.493Z,16.98
2018-08-13T02:57:11.697Z,17.05
2018-08-13T02:59:39.996Z,17.02
2018-08-13T03:02:08.253Z,17.04
2018-08-13T03:04:36.533Z,17.08
2018-08-13T03:07:04.767Z,17.08
2018-08-13T03:09:32.949Z,16.96
2018-08-13T03:12:01.119Z,16.97
2018-08-13T03:14:29.342Z,17.07
2018-08-13T03:16:57.515Z,17.07
2018-08-13T03:19:25.970Z,16.97
2018-08-13T03:21:54.600Z,16.93
2018-08-13T03:24:22.865Z,16.82
2018-08-13T03:26:51.050Z,16.82
2018-08-13T03:29:19.308Z,16.84
2018-08-13T03:31:47.518Z,16.85
2018-08-13T03:34:15.706Z,16.77
2018-08-13T03:36:43.896Z,16.83
2018-08-13T03:39:13.486Z,16.78
2018-08-13T03:41:42.842Z,16.73
2018-08-13T03:44:11.885Z,16.64
2018-08-13T03:46:40.058Z,16.57
2018-08-13T03:49:09.569Z,16.57
2018-08-13T03:51:37.742Z,16.57
2018-08-13T03:54:05.950Z,16.56
2018-08-13T03:56:34.149Z,16.58
2018-08-13T03:59:02.445Z,16.54
2018-08-13T04:01:30.605Z,16.57
2018-08-13T04:03:58.885Z,16.61
2018-08-13T04:06:27.205Z,16.66
2018-08-13T04:08:55.388Z,16.62
2018-08-13T04:11:23.936Z,16.63
2018-08-13T04:13:52.193Z,16.67
2018-08-13T04:16:20.369Z,16.71
2018-08-13T04:18:48.587Z,16.76
2018-08-13T04:21:16.776Z,16.78
2018-08-13T04:23:44.971Z,16.70
2018-08-13T04:26:13.162Z,16.80
2018-08-13T04:28:41.432Z,16.86
2018-08-13T04:31:09.708Z,16.87
2018-08-13T04:33:37.991Z,16.87
2018-08-13T04:36:06.168Z,16.99
2018-08-13T04:38:34.377Z,17.04
2018-08-13T04:41:02.890Z,17.15
2018-08-13T04:43:31.098Z,17.17
2018-08-13T04:45:59.366Z,17.31
2018-08-13T04:48:27.546Z,17.51
2018-08-13T04:50:55.802Z,17.47
2018-08-13T04:53:23.994Z,17.57
2018-08-13T04:55:52.497Z,17.63
2018-08-13T04:58:20.688Z,17.79
2018-08-13T05:00:49.453Z,17.81
2018-08-13T05:03:17.649Z,17.88
2018-08-13T05:05:45.866Z,17.95
2018-08-13T05:08:14.064Z,18.19
2018-08-13T05:10:42.386Z,18.19
2018-08-13T05:13:10.961Z,18.22
2018-08-13T05:15:39.117Z,18.52
2018-08-13T05:18:07.331Z,18.59
2018-08-13T05:20:35.529Z,18.68
2018-08-13T05:23:04.121Z,18.75
2018-08-13T05:25:32.330Z,18.93
2018-08-13T05:28:00.513Z,19.00
2018-08-13T05:30:28.780Z,19.01
2018-08-13T05:32:57.000Z,19.17
2018-08-13T05:35:25.208Z,19.36
2018-08-13T05:37:53.465Z,19.40
2018-08-13T05:40:21.763Z,19.66
2018-08-13T05:42:50.119Z,19.80
2018-08-13T05:45:18.549Z,19.99
2018-08-13T05:47:47.144Z,20.08
2018-08-13T05:50:15.542Z,20.13
2018-08-13T05:52:43.742Z,20.22
2018-08-13T05:55:12.015Z,20.42
2018-08-13T05:57:40.314Z,20.48
2018-08-13T06:00:10.371Z,20.62
2018-08-13T06:02:40.172Z,20.61
2018-08-13T06:05:08.662Z,20.95
2018-08-13T06:07:36.842Z,20.92
2018-08-13T06:10:07.618Z,21.00
2018-08-13T06:12:35.877Z,21.12
2018-08-13T06:15:06.038Z,21.22
2018-08-13T06:17:34.266Z,21.30
2018-08-13T06:20:02.580Z,21.50
2018-08-13T06:22:30.762Z,21.72
2018-08-13T06:24:59.057Z,21.60
2018-08-13T06:27:27.441Z,21.74
2018-08-13T06:29:55.677Z,22.20
2018-08-13T06:32:25.313Z,22.18
2018-08-13T06:34:53.617Z,22.42
2018-08-13T06:37:22.022Z,22.53
2018-08-13T06:39:50.461Z,22.63
2018-08-13T06:42:19.007Z,22.85
2018-08-13T06:44:47.164Z,22.89
2018-08-13T06:47:15.412Z,23.06
2018-08-13T06:49:43.712Z,23.14
2018-08-13T06:52:11.944Z,23.38
2018-08-13T06:54:40.546Z,23.25
2018-08-13T06:57:09.587Z,23.20
2018-08-13T06:59:37.884Z,23.37
2018-08-13T07:02:06.200Z,23.50
2018-08-13T07:04:34.428Z,23.56
2018-08-13T07:07:03.236Z,23.61
2018-08-13T07:09:38.038Z,23.94
2018-08-13T07:12:06.470Z,23.94
2018-08-13T07:14:34.764Z,24.14
2018-08-13T07:17:03.073Z,24.33
2018-08-13T07:19:31.327Z,24.55
2018-08-13T07:21:59.722Z,24.11
2018-08-13T07:24:27.841Z,24.43
2018-08-13T07:26:56.313Z,24.49
2018-08-13T07:29:24.513Z,24.48
2018-08-13T07:31:52.705Z,24.64
2018-08-13T07:34:20.907Z,24.77
2018-08-13T07:36:49.163Z,25.06
2018-08-13T07:39:17.364Z,25.20
2018-08-13T07:41:45.689Z,25.10
2018-08-13T07:44:14.096Z,25.74
2018-08-13T07:46:42.412Z,25.79
2018-08-13T07:49:10.586Z,25.36
2018-08-13T07:51:39.044Z,25.68
2018-08-13T07:54:07.201Z,25.87
2018-08-13T07:56:35.392Z,26.05
2018-08-13T07:59:03.639Z,25.77
2018-08-13T08:01:31.955Z,26.20
2018-08-13T08:04:00.244Z,26.31
2018-08-13T08:06:28.804Z,26.60
2018-08-13T08:08:57.047Z,26.60
2018-08-13T08:11:25.278Z,26.68
2018-08-13T08:13:53.446Z,26.50
2018-08-13T08:16:21.670Z,26.35
2018-08-13T08:18:50.216Z,26.37
2018-08-13T08:21:18.777Z,26.83
2018-08-13T08:23:47.072Z,26.98
2018-08-13T08:26:15.254Z,26.66
2018-08-13T08:28:43.469Z,27.15
2018-08-13T08:31:11.753Z,26.89
2018-08-13T08:33:40.026Z,27.50
2018-08-13T08:36:08.293Z,27.69
2018-08-13T08:38:36.497Z,27.64
2018-08-13T08:41:04.717Z,27.52
2018-08-13T08:43:32.945Z,27.53
2018-08-13T08:46:01.273Z,27.81
2018-08-13T08:48:29.324Z,27.93
2018-08-13T08:50:57.765Z,28.15
2018-08-13T08:53:26.403Z,28.46
2018-08-13T08:55:54.523Z,28.42
2018-08-13T08:58:22.696Z,28.00
2018-08-13T09:00:51.041Z,28.55
2018-08-13T09:03:19.226Z,28.35
2018-08-13T09:05:47.469Z,28.90
2018-08-13T09:08:15.789Z,28.44
2018-08-13T09:10:43.913Z,28.74
2018-08-13T09:13:12.694Z,29.14
2018-08-13T09:15:41.004Z,29.25
2018-08-13T09:18:20.618Z,29.12
2018-08-13T09:21:00.083Z,28.98
2018-08-13T09:23:39.604Z,29.17
2018-08-13T09:26:19.062Z,29.20
2018-08-13T09:28:58.608Z,29.37
2018-08-13T09:31:38.216Z,29.25
2018-08-13T09:34:17.851Z,29.53
2018-08-13T09:36:46.359Z,29.87
2018-08-13T09:39:14.874Z,29.98
2018-08-13T09:41:43.266Z,29.91
2018-08-13T09:44:11.638Z,29.27
2018-08-13T09:46:39.930Z,29.79
2018-08-13T09:49:08.162Z,28.78
2018-08-13T09:51:36.429Z,29.65
2018-08-13T09:54:05.005Z,30.29
2018-08-13T09:56:33.205Z,30.01
2018-08-13T09:59:01.543Z,30.63
2018-08-13T10:01:29.749Z,30.18
2018-08-13T10:03:58.267Z,30.73
2018-08-13T10:06:26.475Z,30.35
2018-08-13T10:08:55.145Z,30.43
2018-08-13T10:11:23.394Z,30.66
2018-08-13T10:13:51.614Z,30.80
2018-08-13T10:16:19.856Z,30.86
2018-08-13T10:18:48.380Z,30.86
2018-08-13T10:21:16.896Z,31.15
2018-08-13T10:23:45.170Z,31.81
2018-08-13T10:26:13.494Z,31.70
2018-08-13T10:28:42.131Z,31.68
2018-08-13T10:31:10.530Z,32.19
2018-08-13T10:33:38.843Z,32.08
2018-08-13T10:36:07.058Z,31.98
2018-08-13T10:38:35.344Z,32.72
2018-08-13T10:41:03.673Z,32.08
2018-08-13T10:43:32.232Z,31.98
2018-08-13T10:46:00.477Z,32.61
2018-08-13T10:48:28.961Z,32.73
2018-08-13T10:50:57.766Z,32.24
2018-08-13T10:53:27.935Z,34.51
2018-08-13T10:55:56.195Z,34.23
2018-08-13T10:58:24.493Z,33.94
2018-08-13T11:00:52.687Z,34.08
2018-08-13T11:03:21.025Z,35.62
2018-08-13T11:05:49.347Z,35.25
2018-08-13T11:08:17.759Z,34.94
2018-08-13T11:10:46.065Z,34.25
2018-08-13T11:13:14.421Z,35.87
2018-08-13T11:15:42.700Z,40.28
2018-08-13T11:18:10.962Z,42.73
2018-08-13T11:20:39.533Z,36.15
2018-08-13T11:23:07.785Z,38.94
2018-08-13T11:25:36.034Z,40.00
2018-08-13T11:28:04.272Z,37.18
2018-08-13T11:30:32.510Z,33.79
2018-08-13T11:33:00.694Z,33.91
2018-08-13T11:35:28.896Z,33.70
2018-08-13T11:37:57.154Z,32.87
2018-08-13T11:40:25.347Z,33.81
2018-08-13T11:42:53.534Z,33.72
2018-08-13T11:45:22.035Z,32.89
2018-08-13T11:47:50.569Z,33.40
2018-08-13T11:50:20.068Z,33.05
2018-08-13T11:52:49.516Z,33.10
2018-08-13T11:55:18.830Z,34.71
2018-08-13T11:57:48.028Z,39.17
2018-08-13T12:00:16.285Z,39.21
2018-08-13T12:02:44.801Z,39.57
2018-08-13T12:05:14.800Z,48.03
2018-08-13T12:07:43.781Z,46.11
2018-08-13T12:10:13.037Z,40.78
2018-08-13T12:12:42.081Z,40.15
2018-08-13T12:15:11.373Z,47.33
2018-08-13T12:17:39.961Z,48.20
2018-08-13T12:20:12.069Z,40.22
2018-08-13T12:22:40.253Z,47.37
2018-08-13T12:25:08.997Z,48.55
2018-08-13T12:27:37.219Z,51.05
2018-08-13T12:30:07.705Z,53.78
2018-08-13T12:32:35.853Z,41.48
2018-08-13T12:35:04.841Z,49.86
2018-08-13T12:37:33.080Z,52.44
2018-08-13T12:40:01.354Z,46.61
2018-08-13T12:42:29.562Z,46.82
2018-08-13T12:44:57.782Z,50.06
2018-08-13T12:47:26.130Z,42.53
2018-08-13T12:49:54.322Z,40.35
2018-08-13T12:52:22.528Z,39.89
2018-08-13T12:54:50.806Z,38.29
2018-08-13T12:57:19.023Z,45.15
2018-08-13T12:59:47.247Z,48.13
2018-08-13T13:02:15.421Z,49.28
2018-08-13T13:04:43.798Z,49.01
2018-08-13T13:07:12.082Z,49.17
2018-08-13T13:09:40.358Z,49.55
2018-08-13T13:12:08.658Z,47.98
2018-08-13T13:14:36.908Z,50.86
2018-08-13T13:17:05.085Z,52.76
2018-08-13T13:19:33.266Z,47.49
2018-08-13T13:22:01.446Z,47.62
2018-08-13T13:24:29.640Z,39.95
2018-08-13T13:26:57.843Z,41.06
2018-08-13T13:29:26.105Z,45.06
2018-08-13T13:31:54.432Z,42.32
2018-08-13T13:34:22.633Z,45.58
2018-08-13T13:36:50.886Z,49.41
2018-08-13T13:39:19.054Z,50.48
2018-08-13T13:41:47.236Z,49.22
2018-08-13T13:44:15.620Z,45.34
2018-08-13T13:46:43.821Z,47.93
2018-08-13T13:49:12.082Z,51.58
2018-08-13T13:51:40.270Z,45.14
2018-08-13T13:54:08.565Z,39.74
2018-08-13T13:56:36.811Z,38.79
2018-08-13T13:59:05.402Z,42.00
2018-08-13T14:01:33.585Z,45.12
2018-08-13T14:04:01.825Z,43.98
2018-08-13T14:06:30.508Z,49.26
2018-08-13T14:08:58.717Z,48.46
2018-08-13T14:11:26.908Z,49.89
2018-08-13T14:13:55.167Z,42.37
2018-08-13T14:16:23.359Z,44.60
2018-08-13T14:18:51.593Z,42.74
2018-08-13T14:21:19.788Z,39.46
2018-08-13T14:23:47.979Z,38.71
2018-08-13T14:26:16.227Z,36.02
2018-08-13T14:28:44.490Z,36.72
2018-08-13T14:31:12.766Z,36.45
2018-08-13T14:33:40.949Z,35.74
2018-08-13T14:36:09.148Z,36.61
2018-08-13T14:38:37.423Z,35.38
2018-08-13T14:41:05.896Z,36.32
2018-08-13T14:43:34.162Z,35.06
2018-08-13T14:46:02.438Z,36.54
2018-08-13T14:48:30.690Z,36.62
2018-08-13T14:50:58.897Z,35.09
2018-08-13T14:53:27.138Z,34.92
2018-08-13T14:55:55.389Z,33.83
2018-08-13T14:58:23.658Z,33.65
2018-08-13T15:00:51.838Z,34.39
2018-08-13T15:03:20.050Z,33.75
2018-08-13T15:05:48.500Z,33.31
2018-08-13T15:08:16.696Z,33.11
2018-08-13T15:10:44.882Z,31.80
2018-08-13T15:13:13.126Z,31.58
2018-08-13T15:15:41.321Z,31.28
2018-08-13T15:18:09.821Z,31.38
2018-08-13T15:20:38.083Z,30.95
2018-08-13T15:23:06.363Z,31.11
2018-08-13T15:25:34.557Z,30.19
2018-08-13T15:28:03.225Z,30.51
2018-08-13T15:30:31.401Z,30.46
2018-08-13T15:32:59.608Z,30.02
2018-08-13T15:35:27.802Z,30.24
2018-08-13T15:37:56.019Z,29.98
2018-08-13T15:40:24.393Z,29.96
2018-08-13T15:42:52.572Z,29.48
2018-08-13T15:45:21.935Z,29.28
2018-08-13T15:47:50.354Z,29.35
2018-08-13T15:50:20.739Z,29.26
2018-08-13T15:52:49.302Z,29.50
2018-08-13T15:55:17.514Z,29.17
2018-08-13T15:57:45.983Z,28.80
2018-08-13T16:00:23.374Z,28.82
2018-08-13T16:02:52.240Z,28.87
2018-08-13T16:05:20.870Z,28.49
2018-08-13T16:07:49.414Z,28.48
2018-08-13T16:10:18.190Z,28.42
2018-08-13T16:12:46.557Z,28.25
2018-08-13T16:15:14.866Z,28.11
2018-08-13T16:17:43.225Z,28.20
2018-08-13T16:20:16.523Z,27.96
2018-08-13T16:22:45.605Z,27.78
2018-08-13T16:25:14.293Z,27.86
2018-08-13T16:27:43.205Z,27.71
2018-08-13T16:30:14.439Z,27.48
2018-08-13T16:32:42.653Z,27.46
2018-08-13T16:35:10.949Z,27.20
2018-08-13T16:37:39.255Z,27.29
2018-08-13T16:40:07.544Z,26.70
2018-08-13T16:42:35.813Z,26.63
2018-08-13T16:45:04.709Z,26.68
2018-08-13T16:47:32.967Z,26.19
2018-08-13T16:50:01.169Z,26.14
2018-08-13T16:52:29.424Z,25.49
2018-08-13T16:54:57.810Z,25.02
2018-08-13T16:57:26.017Z,24.78
2018-08-13T16:59:54.239Z,24.57
2018-08-13T17:02:22.565Z,24.87
2018-08-13T17:04:50.718Z,24.71
2018-08-13T17:07:18.900Z,24.46
2018-08-13T17:09:47.100Z,24.40
2018-08-13T17:12:15.358Z,24.04
2018-08-13T17:14:43.631Z,24.18
2018-08-13T17:17:11.837Z,24.10
2018-08-13T17:19:40.047Z,23.61
2018-08-13T17:22:08.649Z,23.39
2018-08-13T17:24:37.062Z,22.34
2018-08-13T17:27:05.286Z,21.87
2018-08-13T17:29:33.479Z,21.07
2018-08-13T17:32:01.741Z,21.17
2018-08-13T17:34:29.933Z,20.86
2018-08-13T17:36:58.153Z,20.62
2018-08-13T17:39:27.312Z,21.15
2018-08-13T17:41:55.531Z,21.15
2018-08-13T17:44:23.793Z,21.39
2018-08-13T17:46:52.001Z,21.33
2018-08-13T17:49:20.229Z,21.22
2018-08-13T17:51:48.561Z,21.31
2018-08-13T17:54:16.877Z,20.85
2018-08-13T17:56:45.123Z,21.02
2018-08-13T17:59:13.335Z,21.46
2018-08-13T18:01:41.721Z,21.40
2018-08-13T18:04:09.946Z,21.18
2018-08-13T18:06:38.174Z,20.96
2018-08-13T18:09:09.901Z,21.04
2018-08-13T18:11:38.268Z,20.86
2018-08-13T18:14:07.042Z,21.23
2018-08-13T18:16:35.503Z,20.93
2018-08-13T18:19:03.912Z,21.16
2018-08-13T18:21:32.116Z,20.81
2018-08-13T18:24:00.696Z,20.92
2018-08-13T18:26:29.088Z,20.89
2018-08-13T18:28:57.886Z,20.99
2018-08-13T18:31:26.114Z,21.20
2018-08-13T18:33:54.647Z,21.01
2018-08-13T18:36:23.029Z,21.01
2018-08-13T18:38:51.327Z,21.12
2018-08-13T18:41:19.713Z,21.30
2018-08-13T18:43:47.961Z,21.33
2018-08-13T18:46:16.310Z,21.20
2018-08-13T18:48:44.645Z,21.01
2018-08-13T18:51:14.097Z,21.02
2018-08-13T18:53:42.362Z,20.97
2018-08-13T18:56:10.558Z,21.09
2018-08-13T18:58:38.838Z,21.28
2018-08-13T19:01:07.162Z,21.27
2018-08-13T19:03:35.368Z,21.34
2018-08-13T19:06:03.679Z,21.40
2018-08-13T19:08:32.410Z,21.43
2018-08-13T19:11:00.742Z,21.32
2018-08-13T19:13:29.322Z,21.35
2018-08-13T19:15:57.855Z,21.30
2018-08-13T19:18:26.194Z,21.20
2018-08-13T19:20:54.308Z,21.15
2018-08-13T19:23:22.822Z,21.11
2018-08-13T19:25:51.408Z,21.22
2018-08-13T19:28:19.938Z,21.00
2018-08-13T19:30:48.326Z,21.13
2018-08-13T19:33:16.588Z,20.99
2018-08-13T19:35:44.779Z,20.93
2018-08-13T19:38:13.016Z,21.14
2018-08-13T19:40:41.305Z,21.28
2018-08-13T19:43:09.489Z,21.23
2018-08-13T19:45:37.903Z,21.24
2018-08-13T19:48:06.106Z,21.23
2018-08-13T19:50:34.336Z,21.06
2018-08-13T19:53:02.791Z,21.05
2018-08-13T19:55:31.066Z,20.98
2018-08-13T19:57:59.233Z,20.89
2018-08-13T20:00:29.007Z,20.93
2018-08-13T20:02:57.252Z,20.78
2018-08-13T20:05:26.849Z,20.67
2018-08-13T20:07:57.304Z,20.80
2018-08-13T20:10:25.519Z,20.70
2018-08-13T20:12:53.928Z,20.48
2018-08-13T20:15:22.188Z,20.35
2018-08-13T20:17:50.521Z,20.56
2018-08-13T20:20:19.900Z,19.95
2018-08-13T20:22:48.616Z,20.20
2018-08-13T20:25:17.766Z,19.95
2018-08-13T20:27:46.515Z,19.55
2018-08-13T20:30:16.720Z,19.73
2018-08-13T20:32:46.265Z,19.65
2018-08-13T20:35:14.502Z,19.59
2018-08-13T20:37:42.746Z,19.85
2018-08-13T20:40:12.928Z,19.89
2018-08-13T20:42:41.504Z,19.63
2018-08-13T20:45:12.346Z,19.92
2018-08-13T20:47:40.623Z,19.58
2018-08-13T20:50:11.438Z,19.92
2018-08-13T20:52:39.829Z,19.97
2018-08-13T20:55:11.161Z,19.67
2018-08-13T20:57:39.365Z,19.67
2018-08-13T21:00:09.304Z,19.93
2018-08-13T21:02:37.921Z,19.80
2018-08-13T21:05:06.117Z,19.64
2018-08-13T21:07:34.429Z,19.74
2018-08-13T21:10:02.996Z,19.92
2018-08-13T21:12:31.549Z,20.04
2018-08-13T21:14:59.796Z,19.89
2018-08-13T21:17:28.009Z,19.54
2018-08-13T21:19:56.248Z,20.04
2018-08-13T21:22:24.474Z,19.98
2018-08-13T21:24:52.674Z,20.15
2018-08-13T21:27:20.846Z,20.20
2018-08-13T21:29:49.122Z,20.27
2018-08-13T21:32:17.358Z,20.47
2018-08-13T21:34:45.547Z,20.36
2018-08-13T21:37:13.786Z,20.58
2018-08-13T21:39:41.982Z,20.49
2018-08-13T21:42:10.234Z,20.43
2018-08-13T21:44:38.410Z,20.44
2018-08-13T21:47:06.878Z,20.66
2018-08-13T21:49:35.058Z,20.79
2018-08-13T21:52:03.326Z,20.68
2018-08-13T21:54:31.546Z,20.81
2018-08-13T21:56:59.771Z,21.00
2018-08-13T21:59:27.965Z,20.81
2018-08-13T22:01:56.554Z,20.66
2018-08-13T22:04:24.713Z,20.72
2018-08-13T22:06:53.215Z,20.82
2018-08-13T22:09:22.001Z,20.69
2018-08-13T22:11:50.177Z,20.78
2018-08-13T22:14:18.360Z,20.81
2018-08-13T22:16:46.579Z,20.72
2018-08-13T22:19:14.755Z,20.84
2018-08-13T22:21:43.215Z,20.99
2018-08-13T22:24:22.722Z,20.76
2018-08-13T22:26:51.262Z,20.80
2018-08-13T22:29:19.438Z,20.77
2018-08-13T22:31:47.670Z,20.59
2018-08-13T22:34:15.874Z,20.56
2018-08-13T22:36:44.118Z,20.71
2018-08-13T22:39:12.428Z,20.68
2018-08-13T22:41:40.638Z,20.51
2018-08-13T22:44:08.878Z,20.55
2018-08-13T22:46:37.360Z,20.57
2018-08-13T22:49:05.674Z,20.62
2018-08-13T22:51:34.141Z,20.48
2018-08-13T22:54:02.381Z,20.35
2018-08-13T22:56:30.573Z,20.43
2018-08-13T22:58:59.075Z,20.44
2018-08-13T23:01:27.295Z,20.52
2018-08-13T23:03:55.491Z,20.45
2018-08-13T23:06:23.661Z,20.35
2018-08-13T23:08:51.875Z,20.17
2018-08-13T23:11:20.073Z,20.46
2018-08-13T23:13:48.269Z,20.62
2018-08-13T23:16:16.543Z,20.47
2018-08-13T23:18:45.384Z,20.44
2018-08-13T23:21:13.572Z,20.49
2018-08-13T23:23:41.844Z,20.53
2018-08-13T23:26:10.318Z,20.39
2018-08-13T23:28:38.530Z,20.40
2018-08-13T23:31:06.722Z,20.28
2018-08-13T23:33:34.952Z,20.30
2018-08-13T23:36:03.280Z,20.34
2018-08-13T23:38:31.518Z,20.06
2018-08-13T23:40:59.743Z,20.09
2018-08-13T23:43:27.998Z,20.21
2018-08-13T23:45:56.478Z,20.14
2018-08-13T23:48:24.681Z,20.04
2018-08-13T23:50:52.883Z,20.22
2018-08-13T23:53:21.116Z,20.28
2018-08-13T23:55:49.283Z,20.16
2018-08-13T23:58:17.555Z,20.06
